Savannah Hilton Head International Airport
KSAV : now visible

Airfield :











YOU CAN JOIN US ON...

 
LOGIN :

Register | Disclaimer

   EN    FR    IT 

 









Legend :    VFR   Marginal VFR   IFR   Intensive IFR   Very Intensive IFR
Visi :
Ceiling :
>= 8 km
>= 3000ft
5 to 8 km
1000 to 3000 ft
1500m to 5 km
500 to 1000 ft
800 to 1500m
200 to 500 ft
< 800m
< 200 ft
Symbols :   Thunderstorms  Fog  Heavy snow  Heavy precipitations  Wind > 20 kt






- Airport Elevation : 50 ft
- IATA code : SAV


KSAV - Savannah Hilton Head International

CURRENT METAR :
  • 020953Z 27004KT 10SM OVC007 23/22 A3002 RMK AO2 SLP163 T02330222

EXPIRED METARs :
  • 020853Z AUTO 27005KT 10SM OVC006 24/22 A3001 RMK AO2 SLP160 T02390222 55007
  • 012153Z 04007KT 10SM FEW017 SCT026 SCT035 BKN190 29/22 A3001 RMK AO2 SLP160 T02940217
  • 020753Z AUTO 24004KT 10SM BKN009 OVC013 23/22 A3001 RMK AO2 CIG 006V012 SLP160 T02330222
  • 020726Z AUTO 28004KT 10SM BKN008 23/22 A3001 RMK AO2 T02330217

TAF KSAV
Valid from the 02 at 10:00 until the 03 at 06:00 UTC


020950Z 0210/0306 28003KT P6SM BKN006 OVC013
FM021200 28004KT P6SM SCT030
FM021600 29005KT P6SM VCSH SCT050
TEMPO 0216/0220 VRB10G15KT 4SM TSRA BKN050CB
KZJX FIR / North America



MET'MAP, your aeronautical weather chart ! - Copyright ORBIFLY December 2007 - Disclaimer

ORBIFLY MET'MAP TEAM :

Programming & Development : Alexandra Zaïnal
Original concept : Baudouin d'Aumeries
Technical & hardware support : Manuel Goepfert
Assistance : Marc-Olivier Méhu




SOURCES & CREDITS :

   NOAA       Earth
Advisory